Folla — LLPD — position and weather

sailwx.info

Track history (hours):
 
Tides and Currents Weather Stations Pressure Air Temp Water Temp Dewpoint Dewpoint Depression Visibility Wind Speed Wind Dir Waves Ship Positions

Folla

Last reported at 2014-Dec-18 21:16 UTC. Time now 2014-Dec-19 12:00 UTC.
Position N 69°45' E 019°06'.

Length 52 m; draft 5 m.

Type: Cargo ship. MMSI: 258253000.

Date/timePositionNaut miles runAvg speedWind from/ knotsBaromVisibWave heightAir tempDewpointWater temp
2014-Dec-18 21:16N 69°45' E 019°06'5 6.7
2014-Dec-18 20:33N 69°41' E 018°59'0 0.2
2014-Dec-18 19:34N 69°41' E 018°59'0 0.0
2014-Dec-18 18:32N 69°41' E 018°59'0 0.3
2014-Dec-18 17:33N 69°40' E 018°59'7 7.1
2014-Dec-18 16:33N 69°34' E 018°48'186 6.3
2014-Dec-17 11:05N 67°11' E 013°28'44 7.9
2014-Dec-17 05:31N 66°29' E 012°55'6 6.7
2014-Dec-17 04:33N 66°24' E 012°47'1010.1
2014-Dec-17 03:33N 66°22' E 012°22'6 6.4
2014-Dec-17 02:33N 66°16' E 012°26'8010.0
2014-Dec-16 18:34N 64°59' E 011°35'1010.4
2014-Dec-16 17:33N 64°52' E 011°17'9 8.6
2014-Dec-16 16:28N 64°43' E 011°07'5 0.2
2014-Dec-15 15:33N 64°48' E 011°06'5 5.2
2014-Dec-15 14:33N 64°52' E 011°15'1 1.4
2014-Dec-15 13:34N 64°53' E 011°17'9 6.4
2014-Dec-15 12:08N 64°58' E 011°35'611.1
2014-Dec-15 11:34N 64°54' E 011°22'4 4.3
2014-Dec-15 10:34N 64°52' E 011°14'0 0.0
2014-Dec-15 09:34N 64°52' E 011°14'0 0.1
2014-Dec-15 08:33N 64°52' E 011°15'0 0.3
2014-Dec-15 07:34N 64°52' E 011°14'0 0.0
2014-Dec-15 06:33N 64°52' E 011°14'0 0.0
2014-Dec-15 05:34N 64°52' E 011°14'0 0.0
2014-Dec-15 04:33N 64°52' E 011°14'0 0.0
2014-Dec-15 03:33N 64°52' E 011°14'0 0.0
2014-Dec-15 02:33N 64°52' E 011°14'0 0.0
2014-Dec-15 01:34N 64°52' E 011°14'0 0.0
2014-Dec-15 00:34N 64°52' E 011°14'0 0.0
2014-Dec-14 23:33N 64°52' E 011°14'0 0.0
2014-Dec-14 22:33N 64°52' E 011°14'0 0.0
2014-Dec-14 21:33N 64°52' E 011°14'0 0.0
2014-Dec-14 20:34N 64°52' E 011°14'0 0.0
2014-Dec-14 19:34N 64°52' E 011°14'0 0.0
2014-Dec-14 10:34N 64°52' E 011°14'0 0.0
2014-Dec-14 09:34N 64°52' E 011°14'0 0.0
2014-Dec-14 08:33N 64°52' E 011°14'0 0.0
2014-Dec-14 07:33N 64°52' E 011°14'0 0.0
2014-Dec-14 06:34N 64°52' E 011°14'0 0.0
2014-Dec-14 05:33N 64°52' E 011°14'0 0.0
2014-Dec-14 04:34N 64°52' E 011°14'0 0.0
2014-Dec-14 03:33N 64°52' E 011°14'0 0.0
2014-Dec-14 02:34N 64°52' E 011°14'0 0.0
2014-Dec-14 01:33N 64°52' E 011°14'0 0.0
2014-Dec-14 00:34N 64°52' E 011°14'0 0.0
2014-Dec-13 23:33N 64°52' E 011°14'0 0.0
2014-Dec-13 22:34N 64°52' E 011°14'0 0.0
2014-Dec-13 21:34N 64°52' E 011°14'0 0.0
2014-Dec-13 20:34N 64°52' E 011°14'0 0.0
2014-Dec-13 19:33N 64°52' E 011°14'0 0.0
2014-Dec-13 16:33N 64°52' E 011°14'0 0.0
2014-Dec-13 15:33N 64°52' E 011°14'0 0.0
2014-Dec-13 14:34N 64°52' E 011°14'0 0.0
2014-Dec-13 13:33N 64°52' E 011°14'0 0.0
2014-Dec-13 12:33N 64°52' E 011°14'0 0.0
2014-Dec-13 11:33N 64°52' E 011°14'0 0.0
2014-Dec-13 10:34N 64°52' E 011°14'0 0.0
2014-Dec-13 09:34N 64°52' E 011°14'0 0.0
2014-Dec-13 08:34N 64°52' E 011°14'0 0.0
2014-Dec-13 07:33N 64°52' E 011°14'0 0.0
2014-Dec-13 06:33N 64°52' E 011°14'0 0.0
2014-Dec-13 05:34N 64°52' E 011°14'0 0.0
2014-Dec-13 04:33N 64°52' E 011°14'0 0.0
2014-Dec-13 03:33N 64°52' E 011°14'0 0.0
2014-Dec-13 02:34N 64°52' E 011°14'0 0.0
2014-Dec-13 01:34N 64°52' E 011°14'0 0.0
2014-Dec-13 00:34N 64°52' E 011°14'0 0.0
2014-Dec-12 23:34N 64°52' E 011°14'0 0.0
2014-Dec-12 22:33N 64°52' E 011°14'0 0.0
2014-Dec-12 21:33N 64°52' E 011°14'0 0.0
2014-Dec-12 20:34N 64°52' E 011°14'0 0.0
2014-Dec-12 19:34N 64°52' E 011°14'0 0.0
2014-Dec-12 18:34N 64°52' E 011°14'0 0.0
2014-Dec-12 17:33N 64°52' E 011°14'0 0.0
2014-Dec-12 16:33N 64°52' E 011°14'0 0.0
2014-Dec-12 15:34N 64°52' E 011°14'0 0.0
2014-Dec-12 14:34N 64°52' E 011°14'0 0.0
2014-Dec-12 13:34N 64°52' E 011°14'0 0.0
2014-Dec-12 12:33N 64°52' E 011°14'0 0.0
2014-Dec-12 11:33N 64°52' E 011°14'0 0.0
2014-Dec-12 10:34N 64°52' E 011°14'0 0.0
2014-Dec-12 09:33N 64°52' E 011°14'0 0.0
2014-Dec-12 08:33N 64°52' E 011°14'0 0.0
2014-Dec-12 07:34N 64°52' E 011°14'0 0.0
2014-Dec-12 06:34N 64°52' E 011°14'0 0.0
2014-Dec-12 05:34N 64°52' E 011°14'0 0.0
2014-Dec-12 04:34N 64°52' E 011°14'0 0.0
2014-Dec-11 21:09N 64°52' E 011°14'0 0.0
2014-Dec-11 20:34N 64°52' E 011°14'0 0.0
2014-Dec-11 19:33N 64°52' E 011°14'0 0.0
2014-Dec-11 18:33N 64°52' E 011°14'0 0.0
2014-Dec-11 17:34N 64°52' E 011°14'0 0.0
2014-Dec-11 16:34N 64°52' E 011°14'0 0.0
2014-Dec-11 15:34N 64°52' E 011°14'0 0.0
2014-Dec-11 14:33N 64°52' E 011°14'0 0.0
2014-Dec-11 13:34N 64°52' E 011°14'0 0.0
2014-Dec-11 12:34N 64°52' E 011°14'0 0.0
2014-Dec-11 11:33N 64°52' E 011°14'0 0.0
2014-Dec-11 10:33N 64°52' E 011°14'0 0.0
2014-Dec-11 09:34N 64°52' E 011°14'0 0.0
2014-Dec-11 08:33N 64°52' E 011°14'0 0.0
2014-Dec-11 07:34N 64°52' E 011°14'0 0.0
2014-Dec-11 06:33N 64°52' E 011°14'0 0.0
2014-Dec-11 05:34N 64°52' E 011°14'0 0.0
2014-Dec-11 04:33N 64°52' E 011°14'0 0.0
2014-Dec-11 03:33N 64°52' E 011°14'0 0.0
2014-Dec-11 02:34N 64°52' E 011°14'0 0.0
2014-Dec-11 01:33N 64°52' E 011°14'0 0.0
2014-Dec-11 00:34N 64°52' E 011°14'0 0.0
2014-Dec-10 23:34N 64°52' E 011°14'0 0.0
2014-Dec-10 22:34N 64°52' E 011°14'0 0.0
2014-Dec-10 21:34N 64°52' E 011°14'0 0.0
2014-Dec-10 20:34N 64°52' E 011°14'0 0.0
2014-Dec-10 19:34N 64°52' E 011°14'0 0.0
2014-Dec-10 18:34N 64°52' E 011°14'0 0.0
2014-Dec-10 17:33N 64°52' E 011°14'0 0.0
2014-Dec-10 16:33N 64°52' E 011°14'0 0.0
2014-Dec-10 15:33N 64°52' E 011°14'0 0.0
2014-Dec-10 14:34N 64°52' E 011°14'0 0.0
2014-Dec-10 13:33N 64°52' E 011°14'0 0.0
2014-Dec-10 12:34N 64°52' E 011°14'0 0.0
2014-Dec-10 11:34N 64°52' E 011°14'0 0.0
2014-Dec-10 10:34N 64°52' E 011°14'0 0.0
2014-Dec-10 09:33N 64°52' E 011°14'0 0.0
2014-Dec-10 08:33N 64°52' E 011°14'0 0.0
2014-Dec-10 07:33N 64°52' E 011°14'0 0.0
2014-Dec-10 06:34N 64°52' E 011°14'0 0.0
2014-Dec-10 05:34N 64°52' E 011°14'0 0.0
2014-Dec-10 04:34N 64°52' E 011°14'0 0.0
2014-Dec-10 03:34N 64°52' E 011°14'0 0.0
2014-Dec-10 02:34N 64°52' E 011°14'0 0.0
2014-Dec-10 01:33N 64°52' E 011°14'0 0.0
2014-Dec-10 00:34N 64°52' E 011°14'0 0.0
2014-Dec-09 23:34N 64°52' E 011°14'0 0.0
2014-Dec-09 22:33N 64°52' E 011°14'0 0.0
2014-Dec-09 21:33N 64°52' E 011°14'0 0.0
2014-Dec-09 20:34N 64°52' E 011°14'0 0.0
2014-Dec-09 19:33N 64°52' E 011°14'0 0.0
2014-Dec-09 18:34N 64°52' E 011°14'0 0.0
2014-Dec-09 17:33N 64°52' E 011°14'0 0.0
2014-Dec-09 16:34N 64°52' E 011°14'0 0.0
2014-Dec-09 15:33N 64°52' E 011°14'0 0.0
2014-Dec-09 14:34N 64°52' E 011°14'0 0.2
2014-Dec-09 13:33N 64°52' E 011°14'5 5.1
2014-Dec-09 12:33N 64°55' E 011°23'1 0.9
2014-Dec-09 11:33N 64°56' E 011°24'2 2.3
2014-Dec-09 10:34N 64°57' E 011°29'4 4.2
2014-Dec-09 09:34N 64°60' E 011°36'1010.4
2014-Dec-09 08:33N 65°09' E 011°50'7310.1
2014-Dec-09 01:20N 66°17' E 012°56'911.3
2014-Dec-09 00:32N 66°26' E 012°59'1110.3
2014-Dec-08 23:28N 66°36' E 013°04'1211.0
2014-Dec-08 22:21N 66°47' E 013°19'  
Track history (hours):
 
Tides and Currents Weather Stations Pressure Air Temp Water Temp Dewpoint Dewpoint Depression Visibility Wind Speed Wind Dir Waves Ship Positions

Folla

Last reported at 2014-Dec-18 21:16 UTC. Time now 2014-Dec-19 12:00 UTC.
Position N 69°45' E 019°06'.

Length 52 m; draft 5 m.

Type: Cargo ship. MMSI: 258253000.

Date/timePositionNaut miles runAvg speedWind from/ knotsBaromVisibWave heightAir tempDewpointWater temp
2014-Dec-18 21:16N 69°45' E 019°06'5 6.7
2014-Dec-18 20:33N 69°41' E 018°59'0 0.2
2014-Dec-18 19:34N 69°41' E 018°59'0 0.0
2014-Dec-18 18:32N 69°41' E 018°59'0 0.3
2014-Dec-18 17:33N 69°40' E 018°59'7 7.1
2014-Dec-18 16:33N 69°34' E 018°48'186 6.3
2014-Dec-17 11:05N 67°11' E 013°28'44 7.9
2014-Dec-17 05:31N 66°29' E 012°55'6 6.7
2014-Dec-17 04:33N 66°24' E 012°47'1010.1
2014-Dec-17 03:33N 66°22' E 012°22'6 6.4
2014-Dec-17 02:33N 66°16' E 012°26'8010.0
2014-Dec-16 18:34N 64°59' E 011°35'1010.4
2014-Dec-16 17:33N 64°52' E 011°17'9 8.6
2014-Dec-16 16:28N 64°43' E 011°07'5 0.2
2014-Dec-15 15:33N 64°48' E 011°06'5 5.2
2014-Dec-15 14:33N 64°52' E 011°15'1 1.4
2014-Dec-15 13:34N 64°53' E 011°17'9 6.4
2014-Dec-15 12:08N 64°58' E 011°35'611.1
2014-Dec-15 11:34N 64°54' E 011°22'4 4.3
2014-Dec-15 10:34N 64°52' E 011°14'0 0.0
2014-Dec-15 09:34N 64°52' E 011°14'0 0.1
2014-Dec-15 08:33N 64°52' E 011°15'0 0.3
2014-Dec-15 07:34N 64°52' E 011°14'0 0.0
2014-Dec-15 06:33N 64°52' E 011°14'0 0.0
2014-Dec-15 05:34N 64°52' E 011°14'0 0.0
2014-Dec-15 04:33N 64°52' E 011°14'0 0.0
2014-Dec-15 03:33N 64°52' E 011°14'0 0.0
2014-Dec-15 02:33N 64°52' E 011°14'0 0.0
2014-Dec-15 01:34N 64°52' E 011°14'0 0.0
2014-Dec-15 00:34N 64°52' E 011°14'0 0.0
2014-Dec-14 23:33N 64°52' E 011°14'0 0.0
2014-Dec-14 22:33N 64°52' E 011°14'0 0.0
2014-Dec-14 21:33N 64°52' E 011°14'0 0.0
2014-Dec-14 20:34N 64°52' E 011°14'0 0.0
2014-Dec-14 19:34N 64°52' E 011°14'0 0.0
2014-Dec-14 10:34N 64°52' E 011°14'0 0.0
2014-Dec-14 09:34N 64°52' E 011°14'0 0.0
2014-Dec-14 08:33N 64°52' E 011°14'0 0.0
2014-Dec-14 07:33N 64°52' E 011°14'0 0.0
2014-Dec-14 06:34N 64°52' E 011°14'0 0.0
2014-Dec-14 05:33N 64°52' E 011°14'0 0.0
2014-Dec-14 04:34N 64°52' E 011°14'0 0.0
2014-Dec-14 03:33N 64°52' E 011°14'0 0.0
2014-Dec-14 02:34N 64°52' E 011°14'0 0.0
2014-Dec-14 01:33N 64°52' E 011°14'0 0.0
2014-Dec-14 00:34N 64°52' E 011°14'0 0.0
2014-Dec-13 23:33N 64°52' E 011°14'0 0.0
2014-Dec-13 22:34N 64°52' E 011°14'0 0.0
2014-Dec-13 21:34N 64°52' E 011°14'0 0.0
2014-Dec-13 20:34N 64°52' E 011°14'0 0.0
2014-Dec-13 19:33N 64°52' E 011°14'0 0.0
2014-Dec-13 16:33N 64°52' E 011°14'0 0.0
2014-Dec-13 15:33N 64°52' E 011°14'0 0.0
2014-Dec-13 14:34N 64°52' E 011°14'0 0.0
2014-Dec-13 13:33N 64°52' E 011°14'0 0.0
2014-Dec-13 12:33N 64°52' E 011°14'0 0.0
2014-Dec-13 11:33N 64°52' E 011°14'0 0.0
2014-Dec-13 10:34N 64°52' E 011°14'0 0.0
2014-Dec-13 09:34N 64°52' E 011°14'0 0.0
2014-Dec-13 08:34N 64°52' E 011°14'0 0.0
2014-Dec-13 07:33N 64°52' E 011°14'0 0.0
2014-Dec-13 06:33N 64°52' E 011°14'0 0.0
2014-Dec-13 05:34N 64°52' E 011°14'0 0.0
2014-Dec-13 04:33N 64°52' E 011°14'0 0.0
2014-Dec-13 03:33N 64°52' E 011°14'0 0.0
2014-Dec-13 02:34N 64°52' E 011°14'0 0.0
2014-Dec-13 01:34N 64°52' E 011°14'0 0.0
2014-Dec-13 00:34N 64°52' E 011°14'0 0.0
2014-Dec-12 23:34N 64°52' E 011°14'0 0.0
2014-Dec-12 22:33N 64°52' E 011°14'0 0.0
2014-Dec-12 21:33N 64°52' E 011°14'0 0.0
2014-Dec-12 20:34N 64°52' E 011°14'0 0.0
2014-Dec-12 19:34N 64°52' E 011°14'0 0.0
2014-Dec-12 18:34N 64°52' E 011°14'0 0.0
2014-Dec-12 17:33N 64°52' E 011°14'0 0.0
2014-Dec-12 16:33N 64°52' E 011°14'0 0.0
2014-Dec-12 15:34N 64°52' E 011°14'0 0.0
2014-Dec-12 14:34N 64°52' E 011°14'0 0.0
2014-Dec-12 13:34N 64°52' E 011°14'0 0.0
2014-Dec-12 12:33N 64°52' E 011°14'0 0.0
2014-Dec-12 11:33N 64°52' E 011°14'0 0.0
2014-Dec-12 10:34N 64°52' E 011°14'0 0.0
2014-Dec-12 09:33N 64°52' E 011°14'0 0.0
2014-Dec-12 08:33N 64°52' E 011°14'0 0.0
2014-Dec-12 07:34N 64°52' E 011°14'0 0.0
2014-Dec-12 06:34N 64°52' E 011°14'0 0.0
2014-Dec-12 05:34N 64°52' E 011°14'0 0.0
2014-Dec-12 04:34N 64°52' E 011°14'0 0.0
2014-Dec-11 21:09N 64°52' E 011°14'0 0.0
2014-Dec-11 20:34N 64°52' E 011°14'0 0.0
2014-Dec-11 19:33N 64°52' E 011°14'0 0.0
2014-Dec-11 18:33N 64°52' E 011°14'0 0.0
2014-Dec-11 17:34N 64°52' E 011°14'0 0.0
2014-Dec-11 16:34N 64°52' E 011°14'0 0.0
2014-Dec-11 15:34N 64°52' E 011°14'0 0.0
2014-Dec-11 14:33N 64°52' E 011°14'0 0.0
2014-Dec-11 13:34N 64°52' E 011°14'0 0.0
2014-Dec-11 12:34N 64°52' E 011°14'0 0.0
2014-Dec-11 11:33N 64°52' E 011°14'0 0.0
2014-Dec-11 10:33N 64°52' E 011°14'0 0.0
2014-Dec-11 09:34N 64°52' E 011°14'0 0.0
2014-Dec-11 08:33N 64°52' E 011°14'0 0.0
2014-Dec-11 07:34N 64°52' E 011°14'0 0.0
2014-Dec-11 06:33N 64°52' E 011°14'0 0.0
2014-Dec-11 05:34N 64°52' E 011°14'0 0.0
2014-Dec-11 04:33N 64°52' E 011°14'0 0.0
2014-Dec-11 03:33N 64°52' E 011°14'0 0.0
2014-Dec-11 02:34N 64°52' E 011°14'0 0.0
2014-Dec-11 01:33N 64°52' E 011°14'0 0.0
2014-Dec-11 00:34N 64°52' E 011°14'0 0.0
2014-Dec-10 23:34N 64°52' E 011°14'0 0.0
2014-Dec-10 22:34N 64°52' E 011°14'0 0.0
2014-Dec-10 21:34N 64°52' E 011°14'0 0.0
2014-Dec-10 20:34N 64°52' E 011°14'0 0.0
2014-Dec-10 19:34N 64°52' E 011°14'0 0.0
2014-Dec-10 18:34N 64°52' E 011°14'0 0.0
2014-Dec-10 17:33N 64°52' E 011°14'0 0.0
2014-Dec-10 16:33N 64°52' E 011°14'0 0.0
2014-Dec-10 15:33N 64°52' E 011°14'0 0.0
2014-Dec-10 14:34N 64°52' E 011°14'0 0.0
2014-Dec-10 13:33N 64°52' E 011°14'0 0.0
2014-Dec-10 12:34N 64°52' E 011°14'0 0.0
2014-Dec-10 11:34N 64°52' E 011°14'0 0.0
2014-Dec-10 10:34N 64°52' E 011°14'0 0.0
2014-Dec-10 09:33N 64°52' E 011°14'0 0.0
2014-Dec-10 08:33N 64°52' E 011°14'0 0.0
2014-Dec-10 07:33N 64°52' E 011°14'0 0.0
2014-Dec-10 06:34N 64°52' E 011°14'0 0.0
2014-Dec-10 05:34N 64°52' E 011°14'0 0.0
2014-Dec-10 04:34N 64°52' E 011°14'0 0.0
2014-Dec-10 03:34N 64°52' E 011°14'0 0.0
2014-Dec-10 02:34N 64°52' E 011°14'0 0.0
2014-Dec-10 01:33N 64°52' E 011°14'0 0.0
2014-Dec-10 00:34N 64°52' E 011°14'0 0.0
2014-Dec-09 23:34N 64°52' E 011°14'0 0.0
2014-Dec-09 22:33N 64°52' E 011°14'0 0.0
2014-Dec-09 21:33N 64°52' E 011°14'0 0.0
2014-Dec-09 20:34N 64°52' E 011°14'0 0.0
2014-Dec-09 19:33N 64°52' E 011°14'0 0.0
2014-Dec-09 18:34N 64°52' E 011°14'0 0.0
2014-Dec-09 17:33N 64°52' E 011°14'0 0.0
2014-Dec-09 16:34N 64°52' E 011°14'0 0.0
2014-Dec-09 15:33N 64°52' E 011°14'0 0.0
2014-Dec-09 14:34N 64°52' E 011°14'0 0.2
2014-Dec-09 13:33N 64°52' E 011°14'5 5.1
2014-Dec-09 12:33N 64°55' E 011°23'1 0.9
2014-Dec-09 11:33N 64°56' E 011°24'2 2.3
2014-Dec-09 10:34N 64°57' E 011°29'4 4.2
2014-Dec-09 09:34N 64°60' E 011°36'1010.4
2014-Dec-09 08:33N 65°09' E 011°50'7310.1
2014-Dec-09 01:20N 66°17' E 012°56'911.3
2014-Dec-09 00:32N 66°26' E 012°59'1110.3
2014-Dec-08 23:28N 66°36' E 013°04'1211.0
2014-Dec-08 22:21N 66°47' E 013°19'  

Dump ship's entire track history